Time,TemperatureF,DewpointF,PressureIn,WindDirection,WindDirectionDegrees,WindSpeedMPH,WindSpeedGustMPH,Humidity,HourlyPrecipIn,Conditions,Clouds,dailyrainin,SoftwareType,DateUTC
2013-03-27 00:09:00,34.6,25.0,30.11,NW,324,2.0,10.0,69,0.00,,,0.00,weatherlink.com 1.10,2013-03-27 04:09:00,
2013-03-27 00:24:00,34.5,26.0,30.11,NNW,332,4.0,6.0,70,0.00,,,0.00,weatherlink.com 1.10,2013-03-27 04:24:00,
2013-03-27 00:39:00,34.3,25.0,30.11,North,352,4.0,9.0,70,0.00,,,0.00,weatherlink.com 1.10,2013-03-27 04:39:00,
2013-03-27 00:54:00,34.0,25.0,30.12,NNW,340,4.0,8.0,70,0.00,,,0.00,weatherlink.com 1.10,2013-03-27 04:54:00,
2013-03-27 01:09:00,33.6,25.0,30.12,WSW,254,3.0,8.0,71,0.00,,,0.00,weatherlink.com 1.10,2013-03-27 05:09:00,
2013-03-27 01:24:00,33.3,25.0,30.12,West,278,4.0,7.0,71,0.00,,,0.00,weatherlink.com 1.10,2013-03-27 05:24:00,
2013-03-27 01:39:00,33.0,25.0,30.12,West,262,2.0,7.0,72,0.00,,,0.00,weatherlink.com 1.10,2013-03-27 05:39:00,
2013-03-27 01:54:00,32.7,25.0,30.12,West,274,4.0,6.0,72,0.00,,,0.00,weatherlink.com 1.10,2013-03-27 05:54:00,
2013-03-27 02:09:00,32.6,24.0,30.12,WNW,284,5.0,7.0,72,0.00,,,0.00,weatherlink.com 1.10,2013-03-27 06:09:00,
2013-03-27 02:24:00,32.5,24.0,30.12,West,279,3.0,9.0,72,0.00,,,0.00,weatherlink.com 1.10,2013-03-27 06:24:00,
2013-03-27 02:40:00,32.1,25.0,30.11,West,262,3.0,6.0,74,0.00,,,0.00,weatherlink.com 1.10,2013-03-27 06:40:00,
2013-03-27 02:55:00,32.0,25.0,30.11,WNW,283,5.0,8.0,74,0.00,,,0.00,weatherlink.com 1.10,2013-03-27 06:55:00,
2013-03-27 03:10:00,31.6,24.0,30.11,West,278,2.0,7.0,74,0.00,,,0.00,weatherlink.com 1.10,2013-03-27 07:10:00,
2013-03-27 03:25:00,31.2,24.0,30.11,West,265,5.0,7.0,75,0.00,,,0.00,weatherlink.com 1.10,2013-03-27 07:25:00,
2013-03-27 03:40:00,30.6,24.0,30.11,WNW,283,5.0,6.0,77,0.00,,,0.00,weatherlink.com 1.10,2013-03-27 07:40:00,
2013-03-27 03:55:00,30.5,25.0,30.10,WSW,250,5.0,10.0,79,0.00,,,0.00,weatherlink.com 1.10,2013-03-27 07:55:00,
2013-03-27 04:10:00,30.4,25.0,30.11,WNW,283,6.0,10.0,79,0.00,,,0.00,weatherlink.com 1.10,2013-03-27 08:10:00,
2013-03-27 04:25:00,30.4,25.0,30.11,West,273,4.0,10.0,79,0.00,,,0.00,weatherlink.com 1.10,2013-03-27 08:25:00,
2013-03-27 04:40:00,30.4,25.0,30.11,West,259,3.0,8.0,79,0.00,,,0.00,weatherlink.com 1.10,2013-03-27 08:40:00,
2013-03-27 04:55:00,30.3,25.0,30.11,West,279,6.0,9.0,80,0.00,,,0.00,weatherlink.com 1.10,2013-03-27 08:55:00,
2013-03-27 05:10:00,30.4,25.0,30.11,WNW,294,5.0,10.0,80,0.00,,,0.00,weatherlink.com 1.10,2013-03-27 09:10:00,
2013-03-27 05:25:00,30.6,25.0,30.11,SW,225,5.0,13.0,79,0.00,,,0.00,weatherlink.com 1.10,2013-03-27 09:25:00,
2013-03-27 05:55:00,30.6,25.0,30.11,WNW,283,4.0,9.0,79,0.00,,,0.00,weatherlink.com 1.10,2013-03-27 09:55:00,
2013-03-27 06:10:00,30.6,25.0,30.12,WSW,252,3.0,10.0,79,0.00,,,0.00,weatherlink.com 1.10,2013-03-27 10:10:00,
2013-03-27 06:25:00,30.4,25.0,30.12,West,259,5.0,9.0,79,0.00,,,0.00,weatherlink.com 1.10,2013-03-27 10:25:00,
2013-03-27 06:40:00,30.4,25.0,30.12,West,275,2.0,8.0,80,0.00,,,0.00,weatherlink.com 1.10,2013-03-27 10:40:00,
2013-03-27 06:55:00,30.2,25.0,30.12,West,274,6.0,8.0,80,0.00,,,0.00,weatherlink.com 1.10,2013-03-27 10:55:00,
2013-03-27 07:10:00,30.2,25.0,30.13,West,280,4.0,9.0,80,0.00,,,0.00,weatherlink.com 1.10,2013-03-27 11:10:00,
2013-03-27 07:25:00,30.2,25.0,30.12,WNW,285,5.0,8.0,80,0.00,,,0.00,weatherlink.com 1.10,2013-03-27 11:25:00,
2013-03-27 07:40:00,30.2,25.0,30.13,WNW,293,3.0,9.0,81,0.00,,,0.00,weatherlink.com 1.10,2013-03-27 11:40:00,
2013-03-27 07:55:00,30.3,25.0,30.13,WNW,290,6.0,8.0,81,0.00,,,0.00,weatherlink.com 1.10,2013-03-27 11:55:00,
2013-03-27 08:10:00,30.4,25.0,30.14,WSW,243,3.0,11.0,81,0.00,,,0.00,weatherlink.com 1.10,2013-03-27 12:10:00,
2013-03-27 08:25:00,30.5,25.0,30.14,West,265,7.0,9.0,81,0.00,,,0.00,weatherlink.com 1.10,2013-03-27 12:25:00,
2013-03-27 08:40:00,30.9,25.0,30.14,West,262,7.0,9.0,80,0.00,,,0.00,weatherlink.com 1.10,2013-03-27 12:40:00,
2013-03-27 08:55:00,31.2,26.0,30.14,West,270,3.0,11.0,80,0.00,,,0.00,weatherlink.com 1.10,2013-03-27 12:55:00,
2013-03-27 09:10:00,31.8,26.0,30.15,WNW,290,3.0,12.0,79,0.00,,,0.00,weatherlink.com 1.10,2013-03-27 13:10:00,
2013-03-27 09:25:00,32.1,26.0,30.15,West,264,11.0,13.0,79,0.00,,,0.00,weatherlink.com 1.10,2013-03-27 13:25:00,
2013-03-27 09:40:00,32.7,27.0,30.15,WNW,286,6.0,10.0,78,0.00,,,0.00,weatherlink.com 1.10,2013-03-27 13:40:00,
2013-03-27 09:55:00,33.6,27.0,30.15,West,276,6.0,9.0,77,0.00,,,0.00,weatherlink.com 1.10,2013-03-27 13:55:00,
2013-03-27 10:10:00,34.7,28.0,30.15,West,273,6.0,11.0,76,0.00,,,0.00,weatherlink.com 1.10,2013-03-27 14:10:00,
2013-03-27 10:25:00,36.4,29.0,30.15,West,274,9.0,13.0,73,0.00,,,0.00,weatherlink.com 1.10,2013-03-27 14:25:00,
2013-03-27 10:40:00,37.4,29.0,30.15,West,278,7.0,12.0,71,0.00,,,0.00,weatherlink.com 1.10,2013-03-27 14:40:00,
2013-03-27 10:55:00,38.6,29.0,30.15,West,260,4.0,10.0,69,0.00,,,0.00,weatherlink.com 1.10,2013-03-27 14:55:00,
2013-03-27 11:11:00,39.6,30.0,30.15,West,259,7.0,12.0,68,0.00,,,0.00,weatherlink.com 1.10,2013-03-27 15:11:00,
2013-03-27 11:26:00,40.2,29.0,30.15,West,263,4.0,12.0,65,0.00,,,0.00,weatherlink.com 1.10,2013-03-27 15:26:00,
2013-03-27 11:41:00,40.9,30.0,30.15,West,273,9.0,12.0,65,0.00,,,0.00,weatherlink.com 1.10,2013-03-27 15:41:00,
2013-03-27 11:56:00,41.2,29.0,30.15,West,264,6.0,11.0,62,0.00,,,0.00,weatherlink.com 1.10,2013-03-27 15:56:00,
2013-03-27 12:11:00,41.8,29.0,30.15,NE,42,2.0,14.0,60,0.00,,,0.00,weatherlink.com 1.10,2013-03-27 16:11:00,
2013-03-27 12:26:00,42.5,27.0,30.15,North,356,7.0,16.0,55,0.00,,,0.00,weatherlink.com 1.10,2013-03-27 16:26:00,
2013-03-27 12:56:00,42.9,27.0,30.15,NW,325,6.0,17.0,54,0.00,,,0.00,weatherlink.com 1.10,2013-03-27 16:56:00,
2013-03-27 13:11:00,43.4,28.0,30.15,WNW,293,8.0,15.0,55,0.00,,,0.00,weatherlink.com 1.10,2013-03-27 17:11:00,
2013-03-27 13:41:00,44.0,29.0,30.14,West,274,6.0,17.0,55,0.00,,,0.00,weatherlink.com 1.10,2013-03-27 17:41:00,
2013-03-27 14:11:00,45.8,28.0,30.13,West,274,11.0,16.0,51,0.00,,,0.00,weatherlink.com 1.10,2013-03-27 18:11:00,
2013-03-27 14:41:00,45.9,28.0,30.13,NW,326,7.0,18.0,49,0.00,,,0.00,weatherlink.com 1.10,2013-03-27 18:41:00,
2013-03-27 15:26:00,46.7,29.0,30.12,WNW,302,6.0,13.0,50,0.00,,,0.00,weatherlink.com 1.10,2013-03-27 19:26:00,
2013-03-27 15:41:00,46.1,28.0,30.12,WNW,299,10.0,12.0,50,0.00,,,0.00,weatherlink.com 1.10,2013-03-27 19:41:00,
2013-03-27 15:56:00,47.3,29.0,30.12,West,279,11.0,17.0,49,0.00,,,0.00,weatherlink.com 1.10,2013-03-27 19:56:00,
2013-03-27 16:11:00,46.5,28.0,30.12,SW,236,10.0,16.0,48,0.00,,,0.00,weatherlink.com 1.10,2013-03-27 20:11:00,
2013-03-27 16:26:00,46.8,28.0,30.12,WNW,295,6.0,15.0,48,0.00,,,0.00,weatherlink.com 1.10,2013-03-27 20:26:00,
2013-03-27 16:56:00,45.5,28.0,30.12,NNW,348,3.0,15.0,50,0.00,,,0.00,weatherlink.com 1.10,2013-03-27 20:56:00,
2013-03-27 17:11:00,45.3,26.0,30.12,West,265,6.0,12.0,48,0.00,,,0.00,weatherlink.com 1.10,2013-03-27 21:11:00,
2013-03-27 17:26:00,45.4,27.0,30.12,NNW,332,9.0,14.0,48,0.00,,,0.00,weatherlink.com 1.10,2013-03-27 21:26:00,
2013-03-27 17:41:00,45.8,27.0,30.13,NW,305,7.0,14.0,48,0.00,,,0.00,weatherlink.com 1.10,2013-03-27 21:41:00,
2013-03-27 17:56:00,45.2,26.0,30.13,West,274,6.0,19.0,47,0.00,,,0.00,weatherlink.com 1.10,2013-03-27 21:56:00,
2013-03-27 18:11:00,45.2,27.0,30.13,WSW,249,7.0,13.0,49,0.00,,,0.00,weatherlink.com 1.10,2013-03-27 22:11:00,
2013-03-27 18:26:00,46.6,28.0,30.13,NNW,340,16.0,16.0,48,0.00,,,0.00,weatherlink.com 1.10,2013-03-27 22:26:00,
2013-03-27 18:41:00,45.2,26.0,30.13,NNW,343,10.0,19.0,47,0.00,,,0.00,weatherlink.com 1.10,2013-03-27 22:41:00,
2013-03-27 18:56:00,44.5,27.0,30.14,NW,320,4.0,14.0,51,0.00,,,0.00,weatherlink.com 1.10,2013-03-27 22:56:00,
2013-03-27 19:11:00,44.5,27.0,30.14,NNE,24,8.0,15.0,50,0.00,,,0.00,weatherlink.com 1.10,2013-03-27 23:11:00,
2013-03-27 19:26:00,43.9,27.0,30.15,West,278,5.0,15.0,52,0.00,,,0.00,weatherlink.com 1.10,2013-03-27 23:26:00,
2013-03-27 19:41:00,43.5,27.0,30.15,NNW,334,11.0,14.0,53,0.00,,,0.00,weatherlink.com 1.10,2013-03-27 23:41:00,
2013-03-27 19:56:00,42.0,28.0,30.15,North,10,6.0,12.0,57,0.00,,,0.00,weatherlink.com 1.10,2013-03-27 23:56:00,
2013-03-27 20:11:00,41.4,27.0,30.16,WNW,283,4.0,10.0,58,0.00,,,0.00,weatherlink.com 1.10,2013-03-28 00:11:00,
2013-03-27 20:26:00,40.8,28.0,30.17,North,11,7.0,9.0,60,0.00,,,0.00,weatherlink.com 1.10,2013-03-28 00:26:00,
2013-03-27 20:41:00,40.3,27.0,30.17,WNW,297,3.0,9.0,60,0.00,,,0.00,weatherlink.com 1.10,2013-03-28 00:41:00,
2013-03-27 20:56:00,40.0,27.0,30.17,NW,320,5.0,9.0,61,0.00,,,0.00,weatherlink.com 1.10,2013-03-28 00:56:00,
2013-03-27 21:11:00,39.5,27.0,30.18,NW,319,3.0,6.0,62,0.00,,,0.00,weatherlink.com 1.10,2013-03-28 01:11:00,
2013-03-27 21:27:00,39.2,27.0,30.18,North,352,4.0,9.0,62,0.00,,,0.00,weatherlink.com 1.10,2013-03-28 01:27:00,
2013-03-27 21:41:00,38.7,27.0,30.18,NW,311,5.0,10.0,63,0.00,,,0.00,weatherlink.com 1.10,2013-03-28 01:41:00,
2013-03-27 21:57:00,38.1,27.0,30.19,NNW,333,4.0,5.0,64,0.00,,,0.00,weatherlink.com 1.10,2013-03-28 01:57:00,
2013-03-27 22:12:00,37.1,27.0,30.19,NNW,338,2.0,4.0,66,0.00,,,0.00,weatherlink.com 1.10,2013-03-28 02:12:00,
2013-03-27 22:27:00,35.8,27.0,30.19,West,276,1.0,2.0,69,0.00,,,0.00,weatherlink.com 1.10,2013-03-28 02:27:00,
2013-03-27 22:42:00,35.3,26.0,30.19,WSW,245,1.0,2.0,69,0.00,,,0.00,weatherlink.com 1.10,2013-03-28 02:42:00,
2013-03-27 22:57:00,35.1,26.0,30.19,West,267,1.0,2.0,70,0.00,,,0.00,weatherlink.com 1.10,2013-03-28 02:57:00,
2013-03-27 23:12:00,35.0,26.0,30.20,West,263,0.0,4.0,70,0.00,,,0.00,weatherlink.com 1.10,2013-03-28 03:12:00,
2013-03-27 23:27:00,35.3,26.0,30.20,NW,311,2.0,4.0,69,0.00,,,0.00,weatherlink.com 1.10,2013-03-28 03:27:00,
2013-03-27 23:42:00,35.6,26.0,30.20,WNW,290,3.0,4.0,69,0.00,,,0.00,weatherlink.com 1.10,2013-03-28 03:42:00,
2013-03-27 23:57:00,35.3,26.0,30.20,West,270,1.0,3.0,69,0.00,,,0.00,weatherlink.com 1.10,2013-03-28 03:57:00,